createdAt,value
2023-01-19T00:07:08.659Z,97687.43
2023-01-19T00:13:45.298Z,97690.61
2023-01-19T00:19:30.536Z,97688.98
2023-01-19T00:25:14.256Z,97696.63
2023-01-19T00:30:58.700Z,97700.45
2023-01-19T00:36:33.837Z,97703.27
2023-01-19T00:41:58.331Z,97699.34
2023-01-19T00:47:36.562Z,97704.45
2023-01-19T00:53:33.528Z,97706.74
2023-01-19T01:03:48.232Z,97704.89
2023-01-19T01:09:54.318Z,97703.23
2023-01-19T01:16:19.106Z,97703.23
2023-01-19T01:29:41.107Z,97681.95
2023-01-19T01:56:48.734Z,97671.23
2023-01-19T02:03:12.934Z,97659.84
2023-01-19T02:09:30.952Z,97656.42
2023-01-19T02:24:36.942Z,97661.63
2023-01-19T03:18:53.735Z,97673.50
2023-01-19T03:32:24.855Z,97671.08
2023-01-19T04:00:25.262Z,97688.89
2023-01-19T04:23:53.174Z,97697.67
2023-01-19T05:44:07.081Z,97754.42
2023-01-19T05:50:11.815Z,97764.78
2023-01-19T06:10:28.164Z,97776.75
2023-01-19T06:15:50.695Z,97789.55
2023-01-19T06:21:54.889Z,97780.55
2023-01-19T06:27:53.536Z,97780.33
2023-01-19T06:33:32.550Z,97791.55
2023-01-19T06:39:36.867Z,97825.28
2023-01-19T06:45:54.915Z,97841.66
2023-01-19T06:51:42.039Z,97850.51
2023-01-19T06:56:50.927Z,97845.13
2023-01-19T07:03:13.032Z,97851.02
2023-01-19T07:09:02.305Z,97865.45
2023-01-19T07:15:03.502Z,97864.62
2023-01-19T07:20:54.315Z,97867.97
2023-01-19T07:32:25.495Z,97869.85
2023-01-19T07:38:28.512Z,97870.92
2023-01-19T07:44:18.052Z,97857.88
2023-01-19T07:50:13.785Z,97853.30
2023-01-19T07:56:34.777Z,97846.06
2023-01-19T08:03:00.064Z,97842.00
2023-01-19T08:54:24.960Z,97887.23
2023-01-19T09:00:39.424Z,97882.05
2023-01-19T09:13:26.916Z,97857.41
2023-01-19T09:26:44.475Z,97871.65
2023-01-19T09:32:25.748Z,97882.91
2023-01-19T09:38:00.061Z,97880.61
2023-01-19T09:44:17.062Z,97877.30
2023-01-19T09:50:32.718Z,97879.39
2023-01-19T10:29:01.213Z,97845.30
2023-01-19T10:32:07.616Z,97837.22
2023-01-19T10:45:10.980Z,97827.77
2023-01-19T10:51:44.161Z,97826.46
2023-01-19T12:06:36.047Z,97789.95
2023-01-19T12:12:04.209Z,97781.02
2023-01-19T12:17:55.318Z,97771.72
2023-01-19T12:24:09.665Z,97776.89
2023-01-19T12:30:17.872Z,97792.07
2023-01-19T12:36:57.404Z,97796.11
2023-01-19T12:42:55.591Z,97806.34
2023-01-19T12:49:20.199Z,97808.59
2023-01-19T13:09:08.368Z,97813.69
2023-01-19T13:15:24.625Z,97811.39
2023-01-19T13:22:05.835Z,97813.80
2023-01-19T13:34:36.275Z,97824.29
2023-01-19T14:21:01.091Z,97890.57
2023-01-19T14:27:15.442Z,97888.10
2023-01-19T14:34:21.619Z,97892.91
2023-01-19T14:46:40.647Z,97894.48
2023-01-19T14:53:05.907Z,97894.58
2023-01-19T14:58:57.309Z,97897.98
2023-01-19T15:04:29.665Z,97905.01
2023-01-19T15:10:16.660Z,97909.94
2023-01-19T15:15:39.942Z,97919.27
2023-01-19T15:21:54.129Z,97927.90
2023-01-19T15:28:09.324Z,97931.98
2023-01-19T15:33:57.649Z,97936.97
2023-01-19T15:40:26.821Z,97939.86
2023-01-19T15:46:38.417Z,97949.23
2023-01-19T16:00:00.013Z,97954.60
2023-01-19T16:07:14.312Z,97959.23
2023-01-19T16:20:18.003Z,97959.33
2023-01-19T16:26:48.010Z,97964.48
2023-01-19T16:33:25.734Z,97968.91
2023-01-19T16:41:01.827Z,97974.63
2023-01-19T16:53:00.008Z,97976.70
2023-01-19T16:59:29.691Z,97978.27
2023-01-19T17:05:31.290Z,97976.48
2023-01-19T17:13:54.180Z,97981.02
2023-01-19T17:25:40.221Z,97979.32
2023-01-19T17:31:35.895Z,97982.23
2023-01-19T17:52:21.228Z,98013.05
2023-01-19T17:58:26.485Z,98022.75
2023-01-19T18:04:50.701Z,98017.48
2023-01-19T18:17:32.795Z,98017.64
2023-01-19T18:43:40.708Z,98024.96
2023-01-19T18:56:15.625Z,98022.50
2023-01-19T19:08:47.688Z,98022.66
2023-01-19T19:14:46.617Z,98025.24
2023-01-19T20:13:16.445Z,98149.22
2023-01-19T20:19:07.504Z,98156.02
2023-01-19T20:26:43.076Z,98177.35
2023-01-19T20:32:50.624Z,98184.21
2023-01-19T20:39:07.640Z,98187.58
2023-01-19T20:44:53.193Z,98199.05
2023-01-19T20:50:43.188Z,98206.07
2023-01-19T20:57:06.161Z,98202.82
2023-01-19T21:03:09.888Z,98207.25
2023-01-19T21:08:57.660Z,98213.97
2023-01-19T21:14:26.815Z,98210.80
2023-01-19T21:20:25.093Z,98208.98
2023-01-19T21:26:31.862Z,98199.83
2023-01-19T21:32:04.238Z,98203.42
2023-01-19T21:38:00.542Z,98224.60
2023-01-19T21:44:16.785Z,98236.73
2023-01-19T21:50:06.540Z,98251.52
2023-01-19T21:56:31.305Z,98262.02
2023-01-19T22:02:39.557Z,98277.33
2023-01-19T22:09:06.294Z,98273.77
2023-01-19T22:15:10.312Z,98282.45
2023-01-19T22:21:18.705Z,98274.55
2023-01-19T22:27:33.470Z,98276.36
2023-01-19T22:41:04.151Z,98303.66
2023-01-19T23:15:51.412Z,98335.83
2023-01-19T23:21:41.803Z,98351.12
2023-01-19T23:28:12.199Z,98358.60
